Time;durP1;ratioP1;P1;durP2;ratioP2;P2;SDS_P1;SDS_P2;PMS_P1;PMS_P2;Temp;Humidity;BMP_temperature;BMP_pressure;BME280_temperature;BME280_humidity;BME280_pressure;Samples;Min_cycle;Max_cycle;Signal;HPM_P1;HPM_P2
2022/12/22 03:25:53;;;;;;;1079.47;87.25;;;;;;;16.44;56.63;94443.13;5084373;28;20097;-90
2022/12/22 03:28:21;;;;;;;158.23;29.88;;;;;;;18.07;54.67;94452.50;5082211;28;20024;-90
2022/12/22 03:30:52;;;;;;;155.93;28.55;;;;;;;18.31;53.70;94452.03;5064760;28;20130;-89
2022/12/22 03:33:17;;;;;;;180.85;32.30;;;;;;;17.37;54.25;94448.69;5081534;28;20020;-89
2022/12/22 03:35:43;;;;;;;229.88;34.00;;;;;;;16.66;55.98;94446.84;5099706;28;20081;-89
2022/12/22 03:38:08;;;;;;;52.20;26.30;;;;;;;17.86;54.61;94444.38;5081691;28;20032;-90
2022/12/22 03:40:34;;;;;;;58.78;26.58;;;;;;;17.74;52.80;94437.84;5064569;28;20096;-89
2022/12/22 03:48:27;;;;;;;76.30;31.35;;;;;;;16.55;61.37;94427.78;5083651;28;20081;-89
2022/12/22 03:50:53;;;;;;;61.65;26.05;;;;;;;17.94;57.06;94423.19;5081176;28;20023;-89
2022/12/22 03:53:18;;;;;;;50.58;25.20;;;;;;;17.70;56.36;94428.16;5064605;28;20016;-89
2022/12/22 03:55:43;;;;;;;65.28;28.30;;;;;;;17.05;57.75;94426.78;5063884;28;20024;-89
2022/12/22 03:58:09;;;;;;;47.35;22.83;;;;;;;17.87;55.57;94428.16;5099344;28;20102;-89
2022/12/22 04:00:34;;;;;;;120.13;26.52;;;;;;;17.28;57.01;94429.34;5098952;28;20024;-89
2022/12/22 04:03:00;;;;;;;606.47;46.28;;;;;;;17.32;53.62;94435.56;5081057;28;20345;-89
2022/12/22 04:05:26;;;;;;;45.92;22.08;;;;;;;17.91;54.46;94431.75;5098871;28;20020;-90
2022/12/22 04:07:52;;;;;;;46.42;24.25;;;;;;;17.72;53.46;94428.63;5080522;28;20026;-90
2022/12/22 04:13:01;;;;;;;148.82;24.15;;;;;;;17.52;51.86;94428.91;5063026;28;20039;-89
2022/12/22 04:15:29;;;;;;;1168.03;83.15;;;;;;;16.62;56.38;94425.50;5071048;28;20513;-89
2022/12/22 04:17:55;;;;;;;1430.32;95.07;;;;;;;17.02;56.18;94424.75;5065070;28;20028;-89
2022/12/22 04:20:22;;;;;;;1784.55;133.23;;;;;;;16.89;55.17;94422.97;5060229;28;20035;-89
2022/12/22 04:22:48;;;;;;;1604.53;141.48;;;;;;;16.07;56.24;94422.06;5060361;28;20037;-90
2022/12/22 04:25:14;;;;;;;759.40;52.88;;;;;;;16.53;57.65;94419.38;5078019;28;20110;-90
2022/12/22 04:27:39;;;;;;;775.38;66.15;;;;;;;16.16;57.45;94413.44;5060036;28;20348;-90
2022/12/22 04:30:06;;;;;;;58.83;22.60;;;;;;;17.40;55.49;94420.03;5060389;28;20032;-90
2022/12/22 04:32:32;;;;;;;463.30;33.85;;;;;;;16.79;53.76;94411.59;5077756;28;20025;-90
2022/12/22 04:34:57;;;;;;;343.00;36.20;;;;;;;16.78;54.69;94406.59;5059920;28;20079;-89
2022/12/22 04:37:23;;;;;;;29.70;17.35;;;;;;;17.55;53.31;94416.94;5077975;28;20032;-89
2022/12/22 04:39:48;;;;;;;59.20;20.10;;;;;;;17.30;53.89;94405.22;5078301;28;20043;-89
2022/12/22 04:42:14;;;;;;;44.00;19.30;;;;;;;17.36;52.98;94399.47;5077848;28;20468;-90
2022/12/22 04:44:39;;;;;;;53.42;23.27;;;;;;;17.06;54.66;94395.81;5077608;28;20036;-89
2022/12/22 04:47:04;;;;;;;39.60;20.05;;;;;;;16.99;54.91;94398.09;5059986;28;20434;-89
2022/12/22 04:49:30;;;;;;;37.00;18.90;;;;;;;17.23;55.21;94389.78;5059875;28;20383;-89
2022/12/22 04:51:55;;;;;;;69.82;29.73;;;;;;;17.00;56.53;94383.78;5059852;28;20025;-89
2022/12/22 04:54:21;;;;;;;75.13;32.08;;;;;;;17.03;56.41;94380.56;5077997;28;20028;-89
2022/12/22 04:56:46;;;;;;;73.03;29.67;;;;;;;17.08;57.16;94383.03;5077902;28;20089;-89
2022/12/22 04:59:11;;;;;;;91.63;35.28;;;;;;;16.56;60.52;94392.31;5077585;28;20082;-89
2022/12/22 05:01:37;;;;;;;74.95;31.65;;;;;;;17.04;58.80;94393.47;5059568;28;20119;-89
2022/12/22 05:04:02;;;;;;;56.35;24.15;;;;;;;17.26;57.29;94398.97;5059710;28;20317;-89
2022/12/22 05:06:28;;;;;;;47.75;21.33;;;;;;;17.62;56.56;94396.03;5059623;28;20428;-90
2022/12/22 05:08:53;;;;;;;42.70;20.75;;;;;;;17.43;57.25;94404.31;5059061;28;20024;-90
2022/12/22 05:11:19;;;;;;;44.72;21.25;;;;;;;17.13;57.08;94398.00;5077381;28;20089;-89
2022/12/22 05:13:47;;;;;;;49.83;22.63;;;;;;;17.33;61.04;94399.28;5077313;28;20111;-89
2022/12/22 05:16:15;;;;;;;51.63;22.27;;;;;;;17.51;58.96;94406.16;5059584;28;20036;-89
2022/12/22 05:18:44;;;;;;;37.38;18.30;;;;;;;17.71;56.03;94409.28;5042927;28;20032;-90
2022/12/22 05:21:15;;;;;;;520.83;36.33;;;;;;;17.98;55.81;94417.25;5059170;28;20063;-89
2022/12/22 05:23:41;;;;;;;40.40;19.20;;;;;;;16.70;57.79;94420.53;5042883;28;20426;-89
2022/12/22 05:26:07;;;;;;;45.13;19.00;;;;;;;16.94;58.03;94406.97;5059147;28;20032;-89
2022/12/22 05:28:33;;;;;;;46.28;20.60;;;;;;;17.00;59.66;94407.59;5093902;28;20040;-88
2022/12/22 05:31:04;;;;;;;53.08;20.42;;;;;;;16.39;61.47;94406.25;5062481;28;20422;-87
2022/12/22 05:33:29;;;;;;;49.47;21.00;;;;;;;17.03;58.23;94399.06;5079482;28;20032;-87
2022/12/22 05:35:54;;;;;;;62.63;24.85;;;;;;;16.27;58.64;94398.09;5079127;28;20044;-87
2022/12/22 05:38:20;;;;;;;37.45;19.30;;;;;;;17.39;57.12;94392.75;5097743;28;20039;-86
2022/12/22 05:40:45;;;;;;;424.70;32.33;;;;;;;17.00;57.63;94397.81;5078880;28;20044;-87
2022/12/22 05:43:11;;;;;;;38.75;19.00;;;;;;;17.60;55.62;94387.63;5097268;28;20062;-87
2022/12/22 05:45:36;;;;;;;52.20;22.00;;;;;;;17.31;55.59;94386.34;5097132;28;20032;-87
2022/12/22 05:48:14;;;;;;;500.27;37.05;;;;;;;16.57;57.62;94385.19;5079289;28;20109;-87
2022/12/22 05:50:39;;;;;;;154.32;27.15;;;;;;;16.47;58.51;94383.59;5096949;28;20085;-87
2022/12/22 05:53:06;;;;;;;725.08;46.55;;;;;;;16.87;56.50;94383.59;5079040;28;20429;-87
2022/12/22 05:55:32;;;;;;;75.82;15.60;;;;;;;16.27;58.88;94376.94;5097364;28;20036;-88
2022/12/22 05:58:00;;;;;;;19.17;10.00;;;;;;;17.01;58.20;94382.72;5078856;28;20040;-87
2022/12/22 06:00:28;;;;;;;34.83;16.75;;;;;;;16.89;59.98;94384.06;5095826;28;20035;-87
2022/12/22 06:02:53;;;;;;;31.80;14.43;;;;;;;17.15;58.97;94393.97;5078856;28;20039;-87
2022/12/22 06:05:19;;;;;;;34.88;17.98;;;;;;;17.47;58.76;94394.66;5097205;28;20036;-87
2022/12/22 06:07:45;;;;;;;37.58;16.52;;;;;;;17.46;60.03;94408.19;5078826;28;20039;-86
2022/12/22 06:10:11;;;;;;;50.75;18.15;;;;;;;17.58;58.75;94399.66;5078846;28;20036;-86
2022/12/22 06:12:36;;;;;;;36.13;15.05;;;;;;;17.86;57.81;94410.72;5078888;28;20315;-87
2022/12/22 06:15:02;;;;;;;29.67;15.18;;;;;;;16.64;59.60;94414.59;5078764;28;20076;-87
2022/12/22 06:17:28;;;;;;;31.45;15.27;;;;;;;17.26;58.69;94425.44;5097296;28;20039;-87
2022/12/22 06:19:53;;;;;;;26.00;14.05;;;;;;;17.28;56.59;94437.28;5099110;28;20039;-86
2022/12/22 06:22:19;;;;;;;34.75;16.17;;;;;;;17.50;57.03;94433.75;5082446;28;20081;-86
2022/12/22 06:24:44;;;;;;;34.72;18.35;;;;;;;17.36;57.53;94425.16;5082718;28;20421;-86
2022/12/22 06:27:11;;;;;;;34.13;16.50;;;;;;;17.58;55.64;94413.66;5100616;28;20032;-88
2022/12/22 06:29:36;;;;;;;35.20;15.95;;;;;;;17.09;55.56;94422.44;5083019;28;20043;-88
2022/12/22 06:32:02;;;;;;;28.92;13.40;;;;;;;17.09;54.97;94422.44;5082654;28;20337;-88
2022/12/22 06:34:27;;;;;;;27.80;13.80;;;;;;;17.19;54.96;94418.72;5082689;28;20388;-88
2022/12/22 06:36:53;;;;;;;31.90;15.35;;;;;;;16.57;56.28;94424.84;5082456;28;20040;-88
2022/12/22 06:39:18;;;;;;;624.80;39.15;;;;;;;17.00;55.10;94413.69;5082785;28;20032;-88
2022/12/22 06:44:28;;;;;;;310.05;29.20;;;;;;;16.89;53.90;94410.53;5080129;28;20090;-88
2022/12/22 06:46:54;;;;;;;1101.50;85.88;;;;;;;15.10;55.22;94412.50;5090180;28;20425;-87
2022/12/22 06:49:20;;;;;;;1040.70;85.68;;;;;;;14.84;57.25;94420.88;5082179;28;20043;-88
2022/12/22 06:51:46;;;;;;;304.60;20.77;;;;;;;16.21;55.25;94408.81;5082332;28;20036;-87
2022/12/22 06:54:22;;;;;;;571.60;34.15;;;;;;;16.97;53.39;94401.06;5065688;28;20177;-88
2022/12/22 06:56:48;;;;;;;644.35;42.90;;;;;;;15.56;54.80;94402.84;5064940;28;20032;-89
2022/12/22 06:59:14;;;;;;;700.42;52.47;;;;;;;14.76;56.42;94409.16;5065630;28;20089;-90
2022/12/22 07:01:41;;;;;;;27.75;9.25;;;;;;;15.66;56.45;94402.63;5065463;28;20187;-90
2022/12/22 07:04:07;;;;;;;306.27;22.75;;;;;;;15.06;56.44;94401.75;5082006;28;20142;-89
2022/12/22 07:06:32;;;;;;;15.20;8.32;;;;;;;16.06;54.98;94398.56;5082138;28;20122;-90
2022/12/22 07:08:58;;;;;;;76.82;16.85;;;;;;;15.66;55.56;94393.91;5065032;28;20028;-89
2022/12/22 07:11:23;;;;;;;85.43;18.30;;;;;;;15.50;54.82;94388.19;5065379;28;20024;-90
2022/12/22 07:13:49;;;;;;;24.58;12.63;;;;;;;16.08;55.01;94386.63;5081578;28;20028;-90
2022/12/22 07:16:15;;;;;;;59.47;13.95;;;;;;;15.52;55.67;94392.09;5081747;28;20042;-89
2022/12/22 07:18:41;;;;;;;29.77;13.50;;;;;;;16.65;54.93;94387.09;5081687;28;20031;-89
2022/12/22 07:21:10;;;;;;;30.63;16.08;;;;;;;16.06;55.03;94383.50;5081652;28;20381;-88
2022/12/22 07:23:36;;;;;;;313.73;30.02;;;;;;;16.15;55.71;94388.84;5081377;28;20024;-89
2022/12/22 07:26:03;;;;;;;483.48;43.60;;;;;;;15.17;59.78;94386.50;5081594;28;20452;-90
2022/12/22 07:28:32;;;;;;;481.58;30.60;;;;;;;16.45;56.74;94386.53;5081299;28;20031;-89
2022/12/22 07:30:57;;;;;;;21.88;12.30;;;;;;;16.61;55.98;94380.81;5080594;28;20185;-88
2022/12/22 07:33:23;;;;;;;32.13;15.60;;;;;;;16.54;56.60;94387.34;5081448;28;20016;-88
2022/12/22 07:35:48;;;;;;;548.47;36.38;;;;;;;15.66;57.86;94380.69;5081394;28;20028;-89
2022/12/22 07:38:13;;;;;;;27.23;15.07;;;;;;;16.79;56.22;94381.69;5064549;28;20035;-90
2022/12/22 07:40:39;;;;;;;27.27;14.35;;;;;;;17.05;55.34;94387.06;5081355;28;20322;-89
2022/12/22 07:43:05;;;;;;;574.38;31.65;;;;;;;16.59;52.82;94381.16;5081397;28;20096;-89
2022/12/22 07:45:32;;;;;;;130.55;14.80;;;;;;;16.21;54.10;94390.31;5064893;28;20024;-89
2022/12/22 07:50:23;;;;;;;442.95;33.28;;;;;;;15.76;56.08;94388.41;5064828;28;20024;-89
2022/12/22 07:50:47;;;;;;;18.42;11.48;;;;;;;16.57;56.07;94399.19;5083682;28;20027;-89
2022/12/22 07:53:12;;;;;;;20.55;11.30;;;;;;;16.83;55.89;94403.78;5081168;28;20020;-90
2022/12/22 07:55:38;;;;;;;45.38;16.75;;;;;;;17.02;57.26;94416.03;5064578;28;20405;-89
2022/12/22 07:58:03;;;;;;;432.63;35.42;;;;;;;16.11;58.74;94417.72;5081014;28;20032;-89
2022/12/22 08:00:29;;;;;;;74.55;22.08;;;;;;;16.68;60.72;94411.03;5064465;28;20128;-91
2022/12/22 08:02:56;;;;;;;374.23;30.90;;;;;;;17.47;57.36;94407.88;5064379;28;20125;-89
2022/12/22 08:05:23;;;;;;;886.13;55.13;;;;;;;16.59;55.86;94414.75;5080931;28;20036;-89
2022/12/22 08:07:50;;;;;;;129.35;19.05;;;;;;;17.38;56.42;94412.38;5064275;28;20028;-90
2022/12/22 08:10:16;;;;;;;94.97;17.58;;;;;;;17.64;57.74;94415.06;5080517;28;20128;-89
2022/12/22 08:12:42;;;;;;;156.93;19.27;;;;;;;18.01;55.48;94414.78;5080952;28;20077;-89
2022/12/22 08:15:08;;;;;;;31.17;14.77;;;;;;;18.40;55.74;94428.16;5080623;28;20035;-89
2022/12/22 08:17:34;;;;;;;342.60;27.77;;;;;;;17.61;56.55;94415.69;5064071;28;20089;-89
2022/12/22 08:20:00;;;;;;;44.40;18.88;;;;;;;17.77;58.00;94418.66;5080866;28;20077;-89
2022/12/22 08:22:25;;;;;;;35.97;17.52;;;;;;;18.43;56.35;94432.03;5098482;28;20418;-89
2022/12/22 08:25:29;;;;;;;38.00;17.45;;;;;;;18.91;54.34;94446.09;5080422;28;20038;-89
2022/12/22 08:27:55;;;;;;;64.75;16.92;;;;;;;18.15;55.48;94449.09;5098466;28;20038;-90
2022/12/22 08:30:20;;;;;;;31.40;16.25;;;;;;;18.47;55.51;94456.84;5063398;28;20028;-89
2022/12/22 08:32:47;;;;;;;141.43;19.65;;;;;;;18.83;54.67;94460.19;5080374;28;20024;-89
2022/12/22 08:35:12;;;;;;;36.83;15.57;;;;;;;18.41;55.06;94458.09;5063984;28;20475;-88
2022/12/22 08:37:41;;;;;;;33.35;15.27;;;;;;;19.14;54.91;94467.91;5080234;28;20094;-90
2022/12/22 08:40:17;;;;;;;52.45;14.88;;;;;;;19.91;53.99;94474.97;5097923;28;20031;-89
2022/12/22 08:42:43;;;;;;;83.35;13.23;;;;;;;19.24;54.47;94477.41;5098023;28;20032;-89
2022/12/22 08:48:30;;;;;;;26.80;15.10;;;;;;;18.96;56.51;94484.97;5097868;28;20035;-90
2022/12/22 08:50:56;;;;;;;25.50;13.77;;;;;;;19.35;55.66;94478.59;5079735;28;20024;-90
2022/12/22 08:53:21;;;;;;;25.40;14.00;;;;;;;19.86;54.30;94480.50;5097728;28;20440;-89
2022/12/22 08:55:57;;;;;;;52.45;17.27;;;;;;;20.26;53.93;94473.19;5079731;28;20028;-91
2022/12/22 08:58:23;;;;;;;92.22;13.27;;;;;;;19.39;53.06;94488.59;5080047;28;20047;-88
2022/12/22 09:00:48;;;;;;;153.40;15.70;;;;;;;19.16;53.18;94478.22;5079761;28;20024;-89
2022/12/22 09:03:14;;;;;;;294.20;15.93;;;;;;;18.40;53.85;94475.09;5097705;28;20035;-89
2022/12/22 09:05:40;;;;;;;816.70;56.33;;;;;;;17.84;52.54;94486.31;5079634;28;20432;-90
2022/12/22 09:08:06;;;;;;;820.70;55.45;;;;;;;16.59;54.07;94468.44;5097390;28;20027;-90
2022/12/22 09:10:32;;;;;;;752.50;59.97;;;;;;;16.75;54.18;94473.34;5079305;28;20024;-89
2022/12/22 09:12:57;;;;;;;586.20;38.50;;;;;;;16.68;56.00;94468.47;5079445;28;20035;-90
2022/12/22 09:15:23;;;;;;;676.92;44.90;;;;;;;16.01;57.96;94454.19;5097310;28;20202;-88
2022/12/22 09:17:49;;;;;;;299.05;22.20;;;;;;;17.26;55.60;94450.06;5079383;28;20028;-90
2022/12/22 09:20:14;;;;;;;284.33;22.67;;;;;;;16.92;56.17;94454.88;5097219;28;20417;-91
2022/12/22 09:22:40;;;;;;;107.32;13.43;;;;;;;17.91;52.20;94470.75;5097059;28;20039;-89
2022/12/22 09:25:06;;;;;;;499.67;40.53;;;;;;;17.33;54.16;94476.09;5079112;28;20028;-89
2022/12/22 09:27:31;;;;;;;198.18;13.50;;;;;;;17.57;54.53;94459.78;5079304;28;20032;-89
2022/12/22 09:29:57;;;;;;;177.98;13.15;;;;;;;17.80;53.53;94446.41;5079529;28;20035;-90
2022/12/22 09:32:22;;;;;;;290.17;26.52;;;;;;;17.88;53.16;94434.25;5097030;28;20024;-90
2022/12/22 09:34:56;;;;;;;491.27;30.10;;;;;;;17.36;55.80;94435.75;5078911;28;20066;-90
2022/12/22 09:37:21;;;;;;;23.55;10.75;;;;;;;18.78;55.47;94437.25;5078946;28;20353;-89
2022/12/22 09:39:47;;;;;;;159.50;17.95;;;;;;;19.21;52.10;94448.81;5097216;28;20036;-89
2022/12/22 09:42:17;;;;;;;171.90;24.27;;;;;;;19.12;52.39;94445.44;5079125;28;20055;-90
2022/12/22 09:44:44;;;;;;;49.28;20.02;;;;;;;18.93;55.07;94428.78;5096830;28;20032;-89
2022/12/22 09:47:39;;;;;;;40.53;18.48;;;;;;;19.94;53.51;94425.72;5079085;28;20035;-89
2022/12/22 09:50:07;;;;;;;55.30;23.95;;;;;;;19.89;54.60;94426.66;5080056;28;20039;-88
2022/12/22 09:52:32;;;;;;;34.38;17.60;;;;;;;19.21;54.38;94427.56;5096941;28;20337;-90
2022/12/22 09:54:58;;;;;;;34.20;16.58;;;;;;;18.82;54.74;94413.53;5096199;28;20035;-89
2022/12/22 09:57:28;;;;;;;44.63;17.85;;;;;;;19.86;52.57;94426.53;5096982;28;20409;-90
2022/12/22 09:59:54;;;;;;;35.30;17.15;;;;;;;20.11;53.69;94405.41;5078647;28;20031;-89
2022/12/22 10:02:34;;;;;;;28.60;15.77;;;;;;;20.73;52.35;94403.66;5096901;28;20032;-89
2022/12/22 10:05:27;;;;;;;35.65;17.98;;;;;;;21.37;50.36;94395.38;5078891;28;20032;-89
2022/12/22 10:07:54;;;;;;;28.88;15.82;;;;;;;20.75;52.36;94409.44;5079632;28;20035;-89
2022/12/22 10:10:23;;;;;;;36.38;12.88;;;;;;;21.02;52.38;94412.59;5078593;28;20035;-88
2022/12/22 10:12:50;;;;;;;144.55;13.65;;;;;;;20.81;50.91;94409.28;5078789;28;20024;-89
2022/12/22 10:15:16;;;;;;;42.97;11.85;;;;;;;20.41;52.54;94408.72;5079083;28;20034;-89
2022/12/22 10:17:42;;;;;;;252.68;20.30;;;;;;;19.99;51.99;94408.81;5079041;28;20035;-89
2022/12/22 10:20:13;;;;;;;391.80;25.10;;;;;;;19.69;53.11;94414.16;5096855;28;20047;-89
2022/12/22 10:22:51;;;;;;;297.77;19.33;;;;;;;20.20;51.08;94404.22;5096405;28;20085;-89
2022/12/22 10:25:36;;;;;;;137.10;14.57;;;;;;;20.93;50.33;94395.19;5078835;28;20445;-89
2022/12/22 10:28:12;;;;;;;98.13;14.63;;;;;;;21.22;49.24;94391.50;5078695;28;20028;-89
2022/12/22 10:30:39;;;;;;;64.40;11.27;;;;;;;21.15;49.73;94396.63;5078772;28;20056;-89
2022/12/22 10:33:07;;;;;;;116.53;10.27;;;;;;;20.80;49.32;94389.81;5078715;28;20027;-89
2022/12/22 10:35:49;;;;;;;370.88;24.02;;;;;;;20.39;52.01;94391.53;5096394;28;20034;-89
2022/12/22 10:38:29;;;;;;;20.92;12.23;;;;;;;19.23;52.77;94393.53;5078726;28;20073;-88
2022/12/22 10:41:02;;;;;;;17.13;9.80;;;;;;;21.25;49.58;94382.06;5061954;28;20051;-87
2022/12/22 10:43:34;;;;;;;16.20;9.07;;;;;;;21.61;48.89;94378.56;5074250;28;20510;-87
2022/12/22 10:46:00;;;;;;;15.68;9.75;;;;;;;21.39;49.23;94373.72;5077889;28;20115;-89
2022/12/22 10:48:27;;;;;;;16.60;8.77;;;;;;;21.64;49.24;94371.00;5060199;28;20107;-89
2022/12/22 10:50:53;;;;;;;40.75;9.18;;;;;;;21.32;49.58;94367.06;5041782;28;20036;-89
2022/12/22 10:53:19;;;;;;;14.82;9.70;;;;;;;20.11;51.47;94366.28;5058737;28;20028;-88
2022/12/22 10:55:44;;;;;;;64.82;9.90;;;;;;;20.71;49.89;94373.16;5058324;28;20032;-88
2022/12/22 10:58:10;;;;;;;19.83;7.60;;;;;;;21.61;48.95;94375.88;5076239;28;20028;-89
2022/12/22 11:00:37;;;;;;;95.55;10.48;;;;;;;20.65;50.33;94377.91;5075976;28;20028;-89
2022/12/22 11:03:04;;;;;;;75.22;9.40;;;;;;;20.84;50.22;94380.06;5086608;28;20040;-89
2022/12/22 11:05:31;;;;;;;19.40;7.30;;;;;;;21.26;50.17;94368.41;5096206;28;20077;-88
2022/12/22 11:08:00;;;;;;;80.47;10.07;;;;;;;21.38;48.01;94359.63;5099855;28;20028;-88
2022/12/22 11:10:31;;;;;;;29.85;7.93;;;;;;;20.88;50.13;94362.34;5099890;28;20372;-88
2022/12/22 11:13:06;;;;;;;11.13;7.25;;;;;;;20.77;50.47;94367.28;5099659;28;20102;-88
2022/12/22 11:15:40;;;;;;;10.45;7.22;;;;;;;22.75;47.52;94367.06;5099695;28;20024;-89
2022/12/22 11:18:06;;;;;;;12.38;7.45;;;;;;;21.80;49.00;94366.50;5099625;28;20039;-88
2022/12/22 11:21:03;;;;;;;11.00;7.07;;;;;;;23.26;47.53;94360.19;5099790;28;20346;-89
2022/12/22 11:23:36;;;;;;;10.27;6.68;;;;;;;23.46;47.89;94362.94;5081776;28;20422;-88
2022/12/22 11:26:17;;;;;;;10.60;7.10;;;;;;;23.91;47.03;94352.72;5099850;28;20438;-89
2022/12/22 11:28:59;;;;;;;9.35;5.70;;;;;;;22.48;48.36;94353.44;5099379;28;20055;-88
2022/12/22 11:31:46;;;;;;;8.82;6.00;;;;;;;23.25;47.39;94351.41;5081452;28;20024;-88
2022/12/22 11:34:46;;;;;;;9.05;6.32;;;;;;;23.43;46.84;94356.38;5099565;28;20038;-88
2022/12/22 11:37:11;;;;;;;13.98;8.93;;;;;;;22.71;48.11;94358.19;5081292;28;20059;-88
2022/12/22 11:39:53;;;;;;;14.52;9.13;;;;;;;22.90;47.49;94352.13;5081072;28;20386;-88
2022/12/22 11:42:33;;;;;;;12.50;8.30;;;;;;;22.99;47.36;94355.41;5081384;28;20028;-88
2022/12/22 11:45:05;;;;;;;16.83;8.45;;;;;;;22.56;47.16;94357.81;5099050;28;20456;-88
2022/12/22 11:47:48;;;;;;;15.07;9.23;;;;;;;22.61;47.21;94361.38;5098942;28;20024;-89
2022/12/22 11:50:35;;;;;;;18.58;10.73;;;;;;;22.30;48.11;94355.63;5081444;28;20456;-89
2022/12/22 11:53:20;;;;;;;18.90;11.02;;;;;;;21.92;49.37;94354.25;5081415;28;20020;-88
2022/12/22 11:55:58;;;;;;;17.70;10.65;;;;;;;22.50;47.72;94358.44;5098799;28;20032;-89
2022/12/22 11:59:00;;;;;;;17.50;10.40;;;;;;;22.97;44.73;94370.22;5098883;28;20050;-88
2022/12/22 12:01:50;;;;;;;14.52;9.52;;;;;;;23.34;47.04;94364.59;5080461;28;20024;-88
2022/12/22 12:04:33;;;;;;;15.40;9.45;;;;;;;23.51;46.52;94358.06;5098733;28;20028;-88
2022/12/22 12:07:16;;;;;;;19.08;9.95;;;;;;;23.32;46.94;94360.72;5098863;28;20433;-88
2022/12/22 12:10:05;;;;;;;15.70;10.20;;;;;;;22.22;46.86;94356.56;5098836;28;20031;-88
2022/12/22 12:12:40;;;;;;;17.77;9.60;;;;;;;22.52;47.71;94358.84;5098583;28;20020;-89
2022/12/22 12:15:23;;;;;;;14.77;9.18;;;;;;;22.84;47.38;94353.53;5080292;28;20076;-89
2022/12/22 12:17:55;;;;;;;;;;;;;;;23.51;46.45;94347.38;5098246;28;20024;-88
2022/12/22 12:20:36;;;;;;;13.60;8.40;;;;;;;23.75;46.44;94350.91;5098684;28;19908;-89
2022/12/22 12:23:12;;;;;;;13.23;8.00;;;;;;;23.49;47.05;94354.97;5080145;28;20476;-88
2022/12/22 12:25:47;;;;;;;13.88;8.38;;;;;;;24.01;46.06;94338.78;5098334;28;20077;-89
2022/12/22 12:28:28;;;;;;;14.15;8.65;;;;;;;22.47;47.84;94338.53;5080444;28;20034;-88
2022/12/22 12:30:58;;;;;;;12.88;7.28;;;;;;;21.69;49.92;94338.81;5098437;28;20394;-89
2022/12/22 12:33:36;;;;;;;13.50;8.35;;;;;;;22.46;49.52;94336.97;5080301;28;20047;-88
2022/12/22 12:36:07;;;;;;;11.57;7.43;;;;;;;23.60;46.92;94328.47;5097916;28;20499;-88
2022/12/22 12:38:42;;;;;;;10.10;6.60;;;;;;;23.99;46.33;94330.34;5098243;28;20039;-88
2022/12/22 12:41:27;;;;;;;11.40;7.10;;;;;;;24.48;45.32;94334.28;5098229;28;20081;-88
2022/12/22 12:43:53;;;;;;;11.88;7.50;;;;;;;24.08;45.21;94319.44;5080430;28;20036;-88
2022/12/22 12:46:51;;;;;;;10.98;7.20;;;;;;;24.15;42.83;94324.91;5079955;28;20028;-88
2022/12/22 12:49:35;;;;;;;9.93;6.53;;;;;;;24.04;44.77;94337.34;5098074;28;20040;-88
2022/12/22 12:52:06;;;;;;;15.57;7.82;;;;;;;22.50;47.21;94335.19;5098046;28;20346;-89
2022/12/22 12:54:32;;;;;;;12.95;8.48;;;;;;;22.46;46.74;94339.66;5097970;28;20101;-88
2022/12/22 12:56:58;;;;;;;11.40;7.60;;;;;;;22.80;46.96;94347.31;5097494;28;20032;-88
2022/12/22 12:59:39;;;;;;;16.55;8.35;;;;;;;20.73;49.69;94344.31;5079214;28;20039;-88
2022/12/22 13:02:35;;;;;;;14.07;8.55;;;;;;;22.90;46.12;94349.47;5097487;28;20398;-88
2022/12/22 13:05:06;;;;;;;21.65;10.38;;;;;;;22.10;46.90;94339.53;5073201;28;20109;-88
2022/12/22 13:08:03;;;;;;;17.48;10.38;;;;;;;21.99;47.55;94341.13;5097607;28;20114;-88
2022/12/22 13:10:28;;;;;;;18.33;9.85;;;;;;;21.37;47.57;94342.06;5097931;28;20055;-89
2022/12/22 13:12:56;;;;;;;14.07;9.32;;;;;;;21.78;49.29;94322.66;5097658;28;20109;-88
2022/12/22 13:15:25;;;;;;;17.42;10.93;;;;;;;22.95;47.09;94333.16;5079837;28;20165;-88
2022/12/22 13:17:50;;;;;;;84.82;13.68;;;;;;;21.65;48.15;94329.88;5096987;28;20040;-88
2022/12/22 13:20:20;;;;;;;178.90;15.32;;;;;;;21.66;47.40;94326.13;5079763;28;20032;-89
2022/12/22 13:22:51;;;;;;;31.08;11.60;;;;;;;22.43;48.07;94311.75;5062723;28;20101;-88
2022/12/22 13:25:17;;;;;;;160.32;19.02;;;;;;;21.95;47.74;94300.22;5079716;28;20036;-88
2022/12/22 13:27:42;;;;;;;21.45;13.23;;;;;;;22.50;46.70;94308.50;5097225;28;20032;-88
2022/12/22 13:30:16;;;;;;;501.90;29.25;;;;;;;21.32;47.43;94300.44;5078639;28;20039;-88
2022/12/22 13:32:44;;;;;;;213.38;22.48;;;;;;;20.93;51.30;94294.00;5062417;28;20024;-88
2022/12/22 13:35:21;;;;;;;542.88;35.60;;;;;;;21.13;49.85;94294.97;5079288;28;20078;-88
2022/12/22 13:37:49;;;;;;;239.30;21.98;;;;;;;21.51;49.35;94298.28;5079221;28;20036;-88
2022/12/22 13:40:24;;;;;;;54.78;15.57;;;;;;;21.69;48.71;94304.91;5062591;28;20028;-88
2022/12/22 13:42:52;;;;;;;761.95;51.83;;;;;;;20.97;48.50;94308.97;5097450;28;20038;-88
2022/12/22 13:45:37;;;;;;;18.45;11.68;;;;;;;21.42;49.53;94317.09;5079058;28;20089;-88
2022/12/22 13:48:18;;;;;;;484.52;30.80;;;;;;;20.96;49.92;94318.06;5079358;28;20035;-88
2022/12/22 13:50:49;;;;;;;630.67;37.70;;;;;;;20.16;50.97;94315.53;5078991;28;20042;-88
2022/12/22 13:53:19;;;;;;;412.05;31.45;;;;;;;20.99;49.29;94317.41;5097380;28;20067;-89
2022/12/22 13:55:45;;;;;;;344.02;23.08;;;;;;;20.84;49.85;94318.06;5078969;28;20028;-89
2022/12/22 13:58:36;;;;;;;284.17;21.83;;;;;;;21.30;49.42;94320.53;5079074;28;20032;-89
2022/12/22 14:01:08;;;;;;;113.20;18.60;;;;;;;19.85;53.02;94315.97;5079097;28;20027;-89
2022/12/22 14:03:33;;;;;;;32.03;16.10;;;;;;;19.46;53.44;94318.81;5096615;28;20028;-89
2022/12/22 14:05:58;;;;;;;31.52;17.13;;;;;;;20.08;54.01;94323.63;5096820;28;20020;-88
2022/12/22 14:08:24;;;;;;;27.63;15.95;;;;;;;21.38;49.86;94318.88;5078984;28;20071;-90
2022/12/22 14:10:50;;;;;;;25.80;15.90;;;;;;;20.93;51.22;94315.28;5078975;28;20036;-90
2022/12/22 14:13:22;;;;;;;244.13;22.92;;;;;;;21.20;49.38;94311.13;5079001;28;20028;-88
2022/12/22 14:15:58;;;;;;;58.72;14.95;;;;;;;21.84;48.02;94319.41;5062058;28;20028;-88
2022/12/22 14:18:25;;;;;;;41.20;15.73;;;;;;;22.10;48.66;94328.84;5062213;28;20089;-89
2022/12/22 14:20:51;;;;;;;27.02;14.82;;;;;;;21.98;48.56;94326.25;5079087;28;20444;-89
2022/12/22 14:23:20;;;;;;;207.23;72.05;;;;;;;22.24;47.04;94319.66;5078733;28;20028;-88
2022/12/22 14:25:46;;;;;;;818.35;51.92;;;;;;;20.49;50.86;94324.59;5079034;28;20115;-89
2022/12/22 14:28:46;;;;;;;122.63;27.77;;;;;;;22.05;47.32;94317.66;5061845;28;20035;-89
2022/12/22 14:31:12;;;;;;;891.42;56.42;;;;;;;20.01;51.00;94306.34;5079230;28;20039;-89
2022/12/22 14:33:37;;;;;;;173.30;18.30;;;;;;;20.07;51.72;94306.88;5078679;28;20032;-89
2022/12/22 14:36:17;;;;;;;1199.18;197.63;;;;;;;20.36;50.96;94305.16;5078843;28;20032;-88
2022/12/22 14:38:46;;;;;;;628.30;41.08;;;;;;;20.25;52.18;94304.03;5078862;28;20038;-89
2022/12/22 14:41:40;;;;;;;1375.13;188.63;;;;;;;19.97;52.47;94307.31;5081611;28;20425;-89
2022/12/22 14:44:18;;;;;;;495.85;39.70;;;;;;;20.40;51.27;94298.06;5083152;28;20123;-89
2022/12/22 14:46:47;;;;;;;42.40;15.38;;;;;;;20.92;51.07;94295.88;5082624;28;20114;-88
2022/12/22 14:49:15;;;;;;;384.58;25.75;;;;;;;20.89;48.65;94293.88;5082389;28;20039;-90
2022/12/22 14:51:41;;;;;;;601.15;42.97;;;;;;;20.05;51.26;94291.25;5082006;28;20024;-89
2022/12/22 14:54:18;;;;;;;610.95;46.25;;;;;;;19.83;52.28;94299.59;5082699;28;20032;-89
2022/12/22 14:56:50;;;;;;;37.55;15.88;;;;;;;21.14;49.22;94307.16;5065348;28;20076;-88
2022/12/22 14:59:27;;;;;;;63.77;19.47;;;;;;;21.15;50.18;94298.81;5082483;28;20325;-88
2022/12/22 15:02:02;;;;;;;362.45;24.95;;;;;;;19.99;52.52;94297.88;5082015;28;20349;-89
2022/12/22 15:04:28;;;;;;;40.00;15.18;;;;;;;20.38;52.05;94297.63;5081827;28;20500;-88
2022/12/22 15:07:04;;;;;;;270.75;24.15;;;;;;;20.83;50.38;94293.31;5082253;28;20123;-89
2022/12/22 15:09:30;;;;;;;34.03;13.77;;;;;;;20.76;50.70;94295.75;5100389;28;20038;-88